Time,TemperatureF,DewpointF,PressureIn,WindDirection,WindDirectionDegrees,WindSpeedMPH,WindSpeedGustMPH,Humidity,HourlyPrecipIn,Conditions,Clouds,dailyrainin,SoftwareType,DateUTC
2013-06-16 00:01:00,67.1,65.3,29.85,West,274,1.0,1.0,94,0.00,,CLR,0.00,VWS V14.01,2013-06-16 05:01:00,
2013-06-16 00:06:00,67.2,65.1,29.85,West,274,2.0,2.0,93,0.00,,CLR,0.00,VWS V14.01,2013-06-16 05:06:00,
2013-06-16 00:11:00,67.4,65.3,29.85,West,269,0.0,2.0,93,0.00,,CLR,0.00,VWS V14.01,2013-06-16 05:11:00,
2013-06-16 00:16:00,67.4,65.0,29.85,SSW,208,1.0,2.0,92,0.00,,CLR,0.00,VWS V14.01,2013-06-16 05:16:00,
2013-06-16 00:21:00,66.9,64.8,29.85,SW,232,0.0,2.0,93,0.00,,CLR,0.00,VWS V14.01,2013-06-16 05:21:00,
2013-06-16 00:26:00,66.5,64.7,29.86,SW,232,0.0,2.0,94,0.00,,CLR,0.00,VWS V14.01,2013-06-16 05:26:00,
2013-06-16 00:31:00,66.4,64.9,29.86,SW,232,0.0,0.0,95,0.00,,CLR,0.00,VWS V14.01,2013-06-16 05:31:00,
2013-06-16 00:36:00,66.4,64.9,29.85,SW,233,0.0,0.0,95,0.00,,CLR,0.00,VWS V14.01,2013-06-16 05:36:00,
2013-06-16 00:41:00,66.2,64.7,29.85,SW,232,0.0,0.0,95,0.00,,CLR,0.00,VWS V14.01,2013-06-16 05:41:00,
2013-06-16 00:46:00,66.2,65.0,29.85,SW,232,0.0,1.0,96,0.00,,CLR,0.00,VWS V14.01,2013-06-16 05:46:00,
2013-06-16 00:51:00,66.4,65.2,29.85,West,264,0.0,1.0,96,0.00,,CLR,0.00,VWS V14.01,2013-06-16 05:51:00,
2013-06-16 00:56:00,66.3,64.8,29.85,West,262,0.0,1.0,95,0.00,,CLR,0.00,VWS V14.01,2013-06-16 05:56:00,
2013-06-16 01:01:00,66.3,65.1,29.85,West,262,0.0,0.0,96,0.00,,CLR,0.00,VWS V14.01,2013-06-16 06:01:00,
2013-06-16 01:06:00,66.4,65.2,29.85,WSW,252,1.0,2.0,96,0.00,,CLR,0.00,VWS V14.01,2013-06-16 06:06:00,
2013-06-16 01:11:00,66.6,65.4,29.85,West,264,0.0,2.0,96,0.00,,CLR,0.00,VWS V14.01,2013-06-16 06:11:00,
2013-06-16 01:16:00,66.7,65.5,29.85,WSW,257,2.0,2.0,96,0.00,,CLR,0.00,VWS V14.01,2013-06-16 06:16:00,
2013-06-16 01:21:00,66.5,64.7,29.85,SW,225,1.0,2.0,94,0.00,,CLR,0.00,VWS V14.01,2013-06-16 06:21:00,
2013-06-16 01:26:00,66.1,64.6,29.85,WSW,252,1.0,2.0,95,0.00,,CLR,0.00,VWS V14.01,2013-06-16 06:26:00,
2013-06-16 01:31:00,66.0,64.8,29.85,West,278,1.0,1.0,96,0.00,,CLR,0.00,VWS V14.01,2013-06-16 06:31:00,
2013-06-16 01:36:00,65.9,64.7,29.85,WSW,248,1.0,1.0,96,0.00,,CLR,0.00,VWS V14.01,2013-06-16 06:36:00,
2013-06-16 01:41:00,65.9,64.7,29.85,West,271,0.0,1.0,96,0.00,,CLR,0.00,VWS V14.01,2013-06-16 06:41:00,
2013-06-16 01:46:00,65.8,64.6,29.85,West,270,0.0,2.0,96,0.00,,CLR,0.00,VWS V14.01,2013-06-16 06:46:00,
2013-06-16 01:51:00,65.7,64.8,29.84,West,271,1.0,2.0,97,0.00,,CLR,0.00,VWS V14.01,2013-06-16 06:51:00,
2013-06-16 01:56:00,65.7,64.8,29.84,West,275,0.0,2.0,97,0.00,,CLR,0.00,VWS V14.01,2013-06-16 06:56:00,
2013-06-16 02:01:00,65.6,64.7,29.84,West,274,0.0,2.0,97,0.00,,CLR,0.00,VWS V14.01,2013-06-16 07:01:00,
2013-06-16 02:05:00,65.6,64.7,29.84,West,273,0.0,1.0,97,0.00,,CLR,0.00,VWS V14.01,2013-06-16 07:05:00,
2013-06-16 02:10:00,65.5,64.6,29.84,West,273,0.0,1.0,97,0.00,,CLR,0.00,VWS V14.01,2013-06-16 07:10:00,
2013-06-16 02:15:00,65.4,64.5,29.84,West,274,0.0,1.0,97,0.00,,CLR,0.00,VWS V14.01,2013-06-16 07:15:00,
2013-06-16 02:20:00,65.4,64.2,29.83,West,274,0.0,1.0,96,0.00,,CLR,0.00,VWS V14.01,2013-06-16 07:20:00,
2013-06-16 02:25:00,65.2,64.0,29.83,West,274,0.0,1.0,96,0.00,,,0.00,VWS V14.01,2013-06-16 07:25:00,
2013-06-16 02:30:00,64.9,63.7,29.84,West,274,0.0,1.0,96,0.00,,,0.00,VWS V14.01,2013-06-16 07:30:00,
2013-06-16 02:35:00,64.6,63.4,29.84,West,274,0.0,0.0,96,0.00,,,0.00,VWS V14.01,2013-06-16 07:35:00,
2013-06-16 02:40:00,64.5,63.6,29.84,West,274,0.0,0.0,97,0.00,,,0.00,VWS V14.01,2013-06-16 07:40:00,
2013-06-16 02:45:00,64.6,64.0,29.84,West,274,0.0,0.0,98,0.00,,,0.00,VWS V14.01,2013-06-16 07:45:00,
2013-06-16 02:50:00,64.7,63.8,29.85,West,274,0.0,0.0,97,0.00,,,0.00,VWS V14.01,2013-06-16 07:50:00,
2013-06-16 02:55:00,65.0,64.4,29.85,West,274,0.0,0.0,98,0.00,,,0.00,VWS V14.01,2013-06-16 07:55:00,
2013-06-16 03:00:00,65.3,64.4,29.85,West,274,0.0,1.0,97,0.00,,,0.00,VWS V14.01,2013-06-16 08:00:00,
2013-06-16 03:05:00,65.6,65.0,29.85,West,278,0.0,1.0,98,0.00,,,0.00,VWS V14.01,2013-06-16 08:05:00,
2013-06-16 03:10:00,66.0,65.4,29.85,West,278,0.0,1.0,98,0.00,,,0.00,VWS V14.01,2013-06-16 08:10:00,
2013-06-16 03:15:00,66.0,65.1,29.85,West,278,0.0,1.0,97,0.00,,,0.00,VWS V14.01,2013-06-16 08:15:00,
2013-06-16 03:20:00,65.8,64.9,29.85,West,278,0.0,1.0,97,0.00,,,0.00,VWS V14.01,2013-06-16 08:20:00,
2013-06-16 03:25:00,65.6,64.4,29.85,West,278,0.0,1.0,96,0.00,,,0.00,VWS V14.01,2013-06-16 08:25:00,
2013-06-16 03:30:00,65.8,64.6,29.85,West,278,0.0,1.0,96,0.01,,,0.01,VWS V14.01,2013-06-16 08:30:00,
2013-06-16 03:35:00,65.9,64.1,29.85,West,277,0.0,1.0,94,0.01,,,0.01,VWS V14.01,2013-06-16 08:35:00,
2013-06-16 03:40:00,65.9,63.8,29.85,WNW,284,0.0,1.0,93,0.01,,,0.01,VWS V14.01,2013-06-16 08:40:00,
2013-06-16 03:45:00,65.9,63.8,29.85,WNW,284,0.0,1.0,93,0.01,,,0.01,VWS V14.01,2013-06-16 08:45:00,
2013-06-16 03:50:00,65.8,63.4,29.85,WNW,284,0.0,1.0,92,0.01,,,0.01,VWS V14.01,2013-06-16 08:50:00,
2013-06-16 03:55:00,65.5,63.1,29.86,WNW,284,0.0,1.0,92,0.01,,,0.01,VWS V14.01,2013-06-16 08:55:00,
2013-06-16 04:00:00,65.2,62.8,29.86,WNW,284,0.0,1.0,92,0.01,,CLR,0.01,VWS V14.01,2013-06-16 09:00:00,
2013-06-16 04:05:00,64.9,62.8,29.86,WNW,284,0.0,0.0,93,0.01,,CLR,0.01,VWS V14.01,2013-06-16 09:05:00,
2013-06-16 04:10:00,64.7,62.6,29.86,WNW,283,0.0,1.0,93,0.01,,CLR,0.01,VWS V14.01,2013-06-16 09:10:00,
2013-06-16 04:15:00,64.5,62.4,29.86,West,280,0.0,1.0,93,0.01,,CLR,0.01,VWS V14.01,2013-06-16 09:15:00,
2013-06-16 04:20:00,64.6,62.5,29.86,WSW,252,0.0,1.0,93,0.01,,CLR,0.01,VWS V14.01,2013-06-16 09:20:00,
2013-06-16 04:25:00,64.8,62.4,29.87,WSW,249,1.0,1.0,92,0.01,,CLR,0.01,VWS V14.01,2013-06-16 09:25:00,
2013-06-16 04:30:00,64.4,61.7,29.87,SW,225,1.0,4.0,91,0.01,,CLR,0.01,VWS V14.01,2013-06-16 09:30:00,
2013-06-16 04:35:00,63.4,61.0,29.87,WSW,256,1.0,3.0,92,0.00,,CLR,0.01,VWS V14.01,2013-06-16 09:35:00,
2013-06-16 04:40:00,63.0,61.2,29.87,West,278,0.0,4.0,94,0.00,,CLR,0.01,VWS V14.01,2013-06-16 09:40:00,
2013-06-16 04:45:00,63.0,61.5,29.87,West,274,1.0,4.0,95,0.00,,CLR,0.01,VWS V14.01,2013-06-16 09:45:00,
2013-06-16 04:50:00,62.8,61.0,29.87,West,273,0.0,4.0,94,0.00,,CLR,0.01,VWS V14.01,2013-06-16 09:50:00,
2013-06-16 04:55:00,62.6,61.5,29.87,West,278,2.0,4.0,96,0.00,,CLR,0.01,VWS V14.01,2013-06-16 09:55:00,
2013-06-16 05:00:00,62.6,61.2,29.87,West,276,1.0,4.0,95,0.00,,CLR,0.01,VWS V14.01,2013-06-16 10:00:00,
2013-06-16 05:05:00,62.6,61.5,29.87,West,273,2.0,3.0,96,0.00,,CLR,0.01,VWS V14.01,2013-06-16 10:05:00,
2013-06-16 05:10:00,62.5,61.0,29.87,West,274,1.0,3.0,95,0.00,,CLR,0.01,VWS V14.01,2013-06-16 10:10:00,
2013-06-16 05:15:00,62.2,61.0,29.87,West,280,2.0,3.0,96,0.00,,CLR,0.01,VWS V14.01,2013-06-16 10:15:00,
2013-06-16 05:20:00,62.3,61.2,29.87,West,269,1.0,3.0,96,0.00,,CLR,0.01,VWS V14.01,2013-06-16 10:20:00,
2013-06-16 05:25:00,62.4,61.0,29.87,West,271,0.0,3.0,95,0.00,,CLR,0.01,VWS V14.01,2013-06-16 10:25:00,
2013-06-16 05:30:00,62.3,61.2,29.88,West,270,0.0,3.0,96,0.00,,CLR,0.01,VWS V14.01,2013-06-16 10:30:00,
2013-06-16 05:35:00,62.3,61.2,29.88,West,269,1.0,2.0,96,0.00,,CLR,0.01,VWS V14.01,2013-06-16 10:35:00,
2013-06-16 05:40:00,62.3,60.8,29.88,West,270,0.0,2.0,95,0.00,,CLR,0.01,VWS V14.01,2013-06-16 10:40:00,
2013-06-16 05:45:00,62.2,61.0,29.88,West,269,0.0,2.0,96,0.00,,CLR,0.01,VWS V14.01,2013-06-16 10:45:00,
2013-06-16 05:50:00,62.2,61.0,29.88,West,278,0.0,2.0,96,0.00,,CLR,0.01,VWS V14.01,2013-06-16 10:50:00,
2013-06-16 05:55:00,62.2,61.0,29.88,West,278,0.0,2.0,96,0.00,,CLR,0.01,VWS V14.01,2013-06-16 10:55:00,
2013-06-16 06:00:00,62.0,60.8,29.88,West,276,0.0,2.0,96,0.00,,CLR,0.01,VWS V14.01,2013-06-16 11:00:00,
2013-06-16 06:05:00,61.8,60.7,29.88,West,278,0.0,1.0,96,0.00,,CLR,0.01,VWS V14.01,2013-06-16 11:05:00,
2013-06-16 06:10:00,61.8,60.9,29.88,WSW,240,0.0,2.0,97,0.00,,CLR,0.01,VWS V14.01,2013-06-16 11:10:00,
2013-06-16 06:15:00,61.8,60.9,29.88,WSW,240,0.0,2.0,97,0.00,,CLR,0.01,VWS V14.01,2013-06-16 11:15:00,
2013-06-16 06:20:00,62.3,61.4,29.88,WSW,250,0.0,2.0,97,0.00,,CLR,0.01,VWS V14.01,2013-06-16 11:20:00,
2013-06-16 06:25:00,63.1,61.9,29.88,West,259,0.0,2.0,96,0.00,,CLR,0.01,VWS V14.01,2013-06-16 11:25:00,
2013-06-16 06:30:00,63.8,61.7,29.88,WSW,258,0.0,2.0,93,0.00,,CLR,0.01,VWS V14.01,2013-06-16 11:30:00,
2013-06-16 06:35:00,64.1,61.7,29.88,West,259,0.0,0.0,92,0.00,,CLR,0.01,VWS V14.01,2013-06-16 11:35:00,
2013-06-16 06:40:00,64.1,61.7,29.88,WSW,258,0.0,0.0,92,0.00,,CLR,0.01,VWS V14.01,2013-06-16 11:40:00,
2013-06-16 06:45:00,64.3,61.9,29.88,West,259,0.0,0.0,92,0.00,,CLR,0.01,VWS V14.01,2013-06-16 11:45:00,
2013-06-16 06:50:00,64.2,61.8,29.88,WNW,283,2.0,2.0,92,0.00,,CLR,0.01,VWS V14.01,2013-06-16 11:50:00,
2013-06-16 06:55:00,64.0,61.6,29.88,West,274,2.0,2.0,92,0.00,,CLR,0.01,VWS V14.01,2013-06-16 11:55:00,
2013-06-16 07:00:00,63.9,61.5,29.89,West,280,1.0,3.0,92,0.00,,CLR,0.01,VWS V14.01,2013-06-16 12:00:00,
2013-06-16 07:05:00,63.8,61.7,29.89,West,274,1.0,2.0,93,0.00,,CLR,0.01,VWS V14.01,2013-06-16 12:05:00,
2013-06-16 07:10:00,64.1,62.0,29.89,West,278,2.0,2.0,93,0.00,,CLR,0.01,VWS V14.01,2013-06-16 12:10:00,
2013-06-16 07:15:00,64.5,62.1,29.89,West,271,1.0,2.0,92,0.00,,CLR,0.01,VWS V14.01,2013-06-16 12:15:00,
2013-06-16 07:20:00,64.9,62.5,29.89,West,276,2.0,2.0,92,0.00,,CLR,0.01,VWS V14.01,2013-06-16 12:20:00,
2013-06-16 07:25:00,65.1,62.7,29.89,West,276,0.0,2.0,92,0.00,,CLR,0.01,VWS V14.01,2013-06-16 12:25:00,
2013-06-16 07:30:00,65.5,63.4,29.89,West,264,0.0,2.0,93,0.00,,CLR,0.01,VWS V14.01,2013-06-16 12:30:00,
2013-06-16 07:35:00,65.9,62.9,29.89,West,265,0.0,1.0,90,0.00,,CLR,0.01,VWS V14.01,2013-06-16 12:35:00,
2013-06-16 07:40:00,66.5,62.5,29.89,WNW,288,0.0,2.0,87,0.00,,CLR,0.01,VWS V14.01,2013-06-16 12:40:00,
2013-06-16 07:45:00,67.1,62.5,29.89,WNW,288,0.0,2.0,85,0.00,,CLR,0.01,VWS V14.01,2013-06-16 12:45:00,
2013-06-16 07:50:00,67.5,62.2,29.89,WNW,288,0.0,2.0,83,0.00,,CLR,0.01,VWS V14.01,2013-06-16 12:50:00,
2013-06-16 07:55:00,67.8,62.1,29.89,WNW,289,0.0,2.0,82,0.00,,CLR,0.01,VWS V14.01,2013-06-16 12:55:00,
2013-06-16 08:00:00,68.3,62.9,29.89,West,277,0.0,2.0,83,0.00,,CLR,0.01,VWS V14.01,2013-06-16 13:00:00,
2013-06-16 08:05:00,68.6,62.5,29.89,WNW,288,0.0,3.0,81,0.00,,CLR,0.01,VWS V14.01,2013-06-16 13:05:00,
2013-06-16 08:10:00,69.0,62.2,29.89,WNW,293,0.0,3.0,79,0.00,,CLR,0.01,VWS V14.01,2013-06-16 13:10:00,
2013-06-16 08:15:00,69.4,61.5,29.89,NW,308,0.0,3.0,76,0.00,,CLR,0.01,VWS V14.01,2013-06-16 13:15:00,
2013-06-16 08:20:00,70.1,62.2,29.89,West,281,0.0,3.0,76,0.00,,CLR,0.01,VWS V14.01,2013-06-16 13:20:00,
2013-06-16 08:25:00,70.7,64.2,29.89,WSW,252,1.0,3.0,80,0.00,,CLR,0.01,VWS V14.01,2013-06-16 13:25:00,
2013-06-16 08:30:00,71.1,64.3,29.89,WSW,256,0.0,3.0,79,0.00,,CLR,0.01,VWS V14.01,2013-06-16 13:30:00,
2013-06-16 08:35:00,71.7,61.8,29.89,WSW,257,0.0,1.0,71,0.00,,CLR,0.01,VWS V14.01,2013-06-16 13:35:00,
2013-06-16 08:40:00,72.3,61.6,29.89,West,268,0.0,1.0,69,0.00,,CLR,0.01,VWS V14.01,2013-06-16 13:40:00,
2013-06-16 08:45:00,72.7,60.7,29.90,WNW,294,1.0,1.0,66,0.00,,CLR,0.01,VWS V14.01,2013-06-16 13:45:00,
2013-06-16 08:50:00,72.9,61.3,29.90,West,259,1.0,4.0,67,0.00,,CLR,0.01,VWS V14.01,2013-06-16 13:50:00,
2013-06-16 08:55:00,73.1,61.1,29.90,WNW,293,0.0,4.0,66,0.00,,CLR,0.01,VWS V14.01,2013-06-16 13:55:00,
2013-06-16 09:00:00,73.8,61.3,29.90,West,278,0.0,4.0,65,0.00,,CLR,0.01,VWS V14.01,2013-06-16 14:00:00,
2013-06-16 09:05:00,74.2,62.1,29.90,West,279,0.0,3.0,66,0.00,,CLR,0.01,VWS V14.01,2013-06-16 14:05:00,
2013-06-16 09:10:00,73.9,61.8,29.90,WNW,285,0.0,3.0,66,0.00,,CLR,0.01,VWS V14.01,2013-06-16 14:10:00,
2013-06-16 09:15:00,73.9,61.4,29.90,NW,311,1.0,3.0,65,0.00,,CLR,0.01,VWS V14.01,2013-06-16 14:15:00,
2013-06-16 09:20:00,74.0,61.1,29.89,WNW,296,0.0,3.0,64,0.00,,CLR,0.01,VWS V14.01,2013-06-16 14:20:00,
2013-06-16 09:25:00,74.4,61.4,29.89,North,6,1.0,3.0,64,0.00,,CLR,0.01,VWS V14.01,2013-06-16 14:25:00,
2013-06-16 09:30:00,74.6,61.6,29.89,NNE,20,1.0,3.0,64,0.00,,CLR,0.01,VWS V14.01,2013-06-16 14:30:00,
2013-06-16 09:35:00,74.9,62.3,29.89,NW,314,0.0,2.0,65,0.00,,CLR,0.01,VWS V14.01,2013-06-16 14:35:00,
2013-06-16 09:40:00,75.1,62.1,29.89,NW,311,0.0,5.0,64,0.00,,CLR,0.01,VWS V14.01,2013-06-16 14:40:00,
2013-06-16 09:45:00,75.3,61.8,29.89,NNE,13,2.0,5.0,63,0.00,,CLR,0.01,VWS V14.01,2013-06-16 14:45:00,
2013-06-16 09:50:00,75.4,60.6,29.90,WNW,290,1.0,5.0,60,0.00,,CLR,0.01,VWS V14.01,2013-06-16 14:50:00,
2013-06-16 09:55:00,75.3,60.0,29.90,West,279,0.0,5.0,59,0.00,,CLR,0.01,VWS V14.01,2013-06-16 14:55:00,
2013-06-16 10:00:00,75.5,61.1,29.90,WNW,285,0.0,5.0,61,0.00,,CLR,0.01,VWS V14.01,2013-06-16 15:00:00,
2013-06-16 10:05:00,75.5,59.7,29.90,WNW,294,3.0,4.0,58,0.00,,CLR,0.01,VWS V14.01,2013-06-16 15:05:00,
2013-06-16 10:10:00,75.6,59.8,29.90,WSW,250,0.0,4.0,58,0.00,,CLR,0.01,VWS V14.01,2013-06-16 15:10:00,
2013-06-16 10:15:00,75.8,61.4,29.90,West,274,2.0,4.0,61,0.00,,CLR,0.01,VWS V14.01,2013-06-16 15:15:00,
2013-06-16 10:20:00,75.9,59.1,29.90,WNW,297,1.0,4.0,56,0.00,,CLR,0.01,VWS V14.01,2013-06-16 15:20:00,
2013-06-16 10:25:00,76.1,60.3,29.90,WNW,302,0.0,4.0,58,0.00,,CLR,0.01,VWS V14.01,2013-06-16 15:25:00,
2013-06-16 10:30:00,76.4,58.0,29.90,NW,304,1.0,4.0,53,0.00,,CLR,0.01,VWS V14.01,2013-06-16 15:30:00,
2013-06-16 10:35:00,76.8,59.9,29.90,West,277,0.0,1.0,56,0.00,,CLR,0.01,VWS V14.01,2013-06-16 15:35:00,
2013-06-16 10:40:00,77.1,55.9,29.90,WSW,255,2.0,4.0,48,0.00,,CLR,0.01,VWS V14.01,2013-06-16 15:40:00,
2013-06-16 10:45:00,77.3,59.4,29.90,NNW,328,2.0,4.0,54,0.00,,CLR,0.01,VWS V14.01,2013-06-16 15:45:00,
2013-06-16 10:50:00,77.5,56.3,29.90,West,274,3.0,5.0,48,0.00,,CLR,0.01,VWS V14.01,2013-06-16 15:50:00,
2013-06-16 10:55:00,77.4,57.3,29.90,NW,317,0.0,6.0,50,0.00,,CLR,0.01,VWS V14.01,2013-06-16 15:55:00,
2013-06-16 11:00:00,77.8,59.8,29.90,WNW,297,0.0,6.0,54,0.00,,CLR,0.01,VWS V14.01,2013-06-16 16:00:00,
2013-06-16 11:05:00,78.0,57.9,29.90,WNW,298,0.0,4.0,50,0.00,,CLR,0.01,VWS V14.01,2013-06-16 16:05:00,
2013-06-16 11:10:00,78.3,55.2,29.90,WNW,283,2.0,4.0,45,0.00,,CLR,0.01,VWS V14.01,2013-06-16 16:10:00,
2013-06-16 11:15:00,78.6,56.1,29.90,NW,315,1.0,4.0,46,0.00,,CLR,0.01,VWS V14.01,2013-06-16 16:15:00,
2013-06-16 11:20:00,79.1,58.3,29.90,WNW,302,1.0,5.0,49,0.00,,CLR,0.01,VWS V14.01,2013-06-16 16:20:00,
2013-06-16 11:25:00,79.3,56.1,29.90,NE,36,1.0,5.0,45,0.00,,CLR,0.01,VWS V14.01,2013-06-16 16:25:00,
2013-06-16 11:30:00,79.3,57.9,29.90,WNW,283,3.0,5.0,48,0.00,,CLR,0.01,VWS V14.01,2013-06-16 16:30:00,
2013-06-16 11:35:00,79.5,54.4,29.90,WNW,302,1.0,3.0,42,0.00,,CLR,0.01,VWS V14.01,2013-06-16 16:35:00,
2013-06-16 11:40:00,79.6,54.5,29.90,North,352,0.0,3.0,42,0.00,,CLR,0.01,VWS V14.01,2013-06-16 16:40:00,
2013-06-16 11:45:00,79.8,53.4,29.90,NNW,329,0.0,4.0,40,0.00,,CLR,0.01,VWS V14.01,2013-06-16 16:45:00,
2013-06-16 11:50:00,79.9,52.0,29.90,NW,318,2.0,5.0,38,0.00,,CLR,0.01,VWS V14.01,2013-06-16 16:50:00,
2013-06-16 11:55:00,79.9,54.1,29.90,NW,319,1.0,5.0,41,0.00,,CLR,0.01,VWS V14.01,2013-06-16 16:55:00,
2013-06-16 12:00:00,79.9,50.6,29.91,NW,315,0.0,5.0,36,0.00,,CLR,0.01,VWS V14.01,2013-06-16 17:00:00,
2013-06-16 12:05:00,80.0,54.2,29.90,NNE,15,0.0,3.0,41,0.00,,CLR,0.01,VWS V14.01,2013-06-16 17:05:00,
2013-06-16 12:10:00,80.1,52.2,29.91,NE,47,1.0,5.0,38,0.00,,CLR,0.01,VWS V14.01,2013-06-16 17:10:00,
2013-06-16 12:15:00,80.1,54.3,29.90,NNE,16,2.0,5.0,41,0.00,,CLR,0.01,VWS V14.01,2013-06-16 17:15:00,
2013-06-16 12:20:00,80.3,53.8,29.90,North,351,4.0,5.0,40,0.00,,CLR,0.01,VWS V14.01,2013-06-16 17:20:00,
2013-06-16 12:25:00,80.3,51.7,29.90,North,5,0.0,5.0,37,0.00,,CLR,0.01,VWS V14.01,2013-06-16 17:25:00,
2013-06-16 12:30:00,80.3,53.8,29.90,North,5,1.0,5.0,40,0.00,,CLR,0.01,VWS V14.01,2013-06-16 17:30:00,
2013-06-16 12:35:00,80.6,56.1,29.90,NE,44,0.0,4.0,43,0.00,,CLR,0.01,VWS V14.01,2013-06-16 17:35:00,
2013-06-16 12:40:00,80.7,56.8,29.90,NNW,331,2.0,5.0,44,0.00,,CLR,0.01,VWS V14.01,2013-06-16 17:40:00,
2013-06-16 12:45:00,80.9,55.7,29.90,ESE,113,1.0,5.0,42,0.00,,CLR,0.01,VWS V14.01,2013-06-16 17:45:00,
2013-06-16 12:50:00,81.1,54.5,29.90,North,9,3.0,5.0,40,0.00,,CLR,0.01,VWS V14.01,2013-06-16 17:50:00,
2013-06-16 12:55:00,81.0,52.3,29.90,NNW,330,2.0,7.0,37,0.00,,CLR,0.01,VWS V14.01,2013-06-16 17:55:00,
2013-06-16 13:00:00,81.2,54.6,29.90,NNW,328,1.0,7.0,40,0.00,,CLR,0.01,VWS V14.01,2013-06-16 18:00:00,
2013-06-16 13:05:00,81.1,51.7,29.90,NNW,340,4.0,5.0,36,0.00,,CLR,0.01,VWS V14.01,2013-06-16 18:05:00,
2013-06-16 13:10:00,80.9,50.7,29.90,NNE,32,1.0,7.0,35,0.00,,CLR,0.01,VWS V14.01,2013-06-16 18:10:00,
2013-06-16 13:15:00,81.1,52.4,29.90,North,356,4.0,7.0,37,0.00,,CLR,0.01,VWS V14.01,2013-06-16 18:15:00,
2013-06-16 13:20:00,81.2,53.9,29.90,West,270,3.0,7.0,39,0.00,,CLR,0.01,VWS V14.01,2013-06-16 18:20:00,
2013-06-16 13:25:00,81.3,52.6,29.90,NNE,18,1.0,7.0,37,0.00,,CLR,0.01,VWS V14.01,2013-06-16 18:25:00,
2013-06-16 13:30:00,81.3,54.7,29.90,North,359,2.0,7.0,40,0.00,,CLR,0.01,VWS V14.01,2013-06-16 18:30:00,
2013-06-16 13:35:00,81.6,55.6,29.90,WNW,289,1.0,5.0,41,0.00,,CLR,0.01,VWS V14.01,2013-06-16 18:35:00,
2013-06-16 13:40:00,81.7,54.4,29.89,West,262,0.0,5.0,39,0.00,,CLR,0.01,VWS V14.01,2013-06-16 18:40:00,
2013-06-16 13:45:00,81.8,51.5,29.89,NW,314,2.0,7.0,35,0.00,,CLR,0.01,VWS V14.01,2013-06-16 18:45:00,
2013-06-16 13:50:00,81.9,50.0,29.89,NNW,345,1.0,7.0,33,0.00,,CLR,0.01,VWS V14.01,2013-06-16 18:50:00,
2013-06-16 13:55:00,81.9,51.6,29.89,NNW,348,0.0,7.0,35,0.00,,CLR,0.01,VWS V14.01,2013-06-16 18:55:00,
2013-06-16 14:00:00,81.9,53.1,29.90,NE,41,1.0,7.0,37,0.00,,CLR,0.01,VWS V14.01,2013-06-16 19:00:00,
2013-06-16 14:05:00,82.0,53.9,29.89,ENE,63,2.0,6.0,38,0.00,,CLR,0.01,VWS V14.01,2013-06-16 19:05:00,
2013-06-16 14:10:00,81.9,52.3,29.89,North,352,2.0,6.0,36,0.00,,CLR,0.01,VWS V14.01,2013-06-16 19:10:00,
2013-06-16 14:15:00,81.9,51.6,29.89,NNE,33,1.0,6.0,35,0.00,,CLR,0.01,VWS V14.01,2013-06-16 19:15:00,
2013-06-16 14:20:00,81.7,52.2,29.89,WSW,247,0.0,6.0,36,0.00,,CLR,0.01,VWS V14.01,2013-06-16 19:20:00,
2013-06-16 14:25:00,81.9,53.1,29.90,North,9,2.0,6.0,37,0.00,,CLR,0.01,VWS V14.01,2013-06-16 19:25:00,
2013-06-16 14:30:00,82.3,56.3,29.90,North,360,1.0,6.0,41,0.00,,CLR,0.01,VWS V14.01,2013-06-16 19:30:00,
2013-06-16 14:35:00,82.3,51.9,29.89,NNE,13,0.0,3.0,35,0.00,,CLR,0.01,VWS V14.01,2013-06-16 19:35:00,
2013-06-16 14:40:00,82.5,54.4,29.89,WNW,285,1.0,4.0,38,0.00,,CLR,0.01,VWS V14.01,2013-06-16 19:40:00,
2013-06-16 14:45:00,82.8,52.4,29.89,NW,322,1.0,4.0,35,0.00,,CLR,0.01,VWS V14.01,2013-06-16 19:45:00,
2013-06-16 14:50:00,82.6,55.2,29.89,North,351,1.0,5.0,39,0.00,,CLR,0.01,VWS V14.01,2013-06-16 19:50:00,
2013-06-16 14:55:00,82.4,52.0,29.89,NNW,344,2.0,5.0,35,0.00,,CLR,0.01,VWS V14.01,2013-06-16 19:55:00,
2013-06-16 15:00:00,82.4,52.8,29.89,NE,38,1.0,5.0,36,0.00,,CLR,0.01,VWS V14.01,2013-06-16 20:00:00,
2013-06-16 15:05:00,82.6,55.2,29.89,NNW,345,0.0,6.0,39,0.00,,CLR,0.01,VWS V14.01,2013-06-16 20:05:00,
2013-06-16 15:10:00,82.7,54.5,29.89,NNE,16,2.0,6.0,38,0.00,,CLR,0.01,VWS V14.01,2013-06-16 20:10:00,
2013-06-16 15:15:00,82.8,50.8,29.89,WNW,287,2.0,6.0,33,0.00,,CLR,0.01,VWS V14.01,2013-06-16 20:15:00,
2013-06-16 15:20:00,82.7,50.7,29.89,West,260,4.0,6.0,33,0.00,,CLR,0.01,VWS V14.01,2013-06-16 20:20:00,
2013-06-16 15:25:00,82.5,53.6,29.89,NW,314,0.0,9.0,37,0.00,,CLR,0.01,VWS V14.01,2013-06-16 20:25:00,
2013-06-16 15:30:00,82.7,52.3,29.89,WNW,288,1.0,9.0,35,0.00,,CLR,0.01,VWS V14.01,2013-06-16 20:30:00,
2013-06-16 15:35:00,82.8,56.7,29.89,WNW,293,1.0,4.0,41,0.00,,CLR,0.01,VWS V14.01,2013-06-16 20:35:00,
2013-06-16 15:40:00,83.1,51.9,29.89,North,6,2.0,4.0,34,0.00,,CLR,0.01,VWS V14.01,2013-06-16 20:40:00,
2013-06-16 15:45:00,83.3,52.0,29.89,NE,53,1.0,4.0,34,0.00,,CLR,0.01,VWS V14.01,2013-06-16 20:45:00,
2013-06-16 15:50:00,83.6,53.1,29.88,West,271,2.0,4.0,35,0.00,,CLR,0.01,VWS V14.01,2013-06-16 20:50:00,
2013-06-16 15:55:00,83.6,55.3,29.88,North,359,2.0,6.0,38,0.00,,CLR,0.01,VWS V14.01,2013-06-16 20:55:00,
2013-06-16 16:00:00,83.9,54.9,29.88,NNW,339,0.0,6.0,37,0.00,,CLR,0.01,VWS V14.01,2013-06-16 21:00:00,
2013-06-16 16:05:00,83.9,51.8,29.88,WNW,285,1.0,6.0,33,0.00,,CLR,0.01,VWS V14.01,2013-06-16 21:05:00,
2013-06-16 16:10:00,83.6,53.8,29.88,West,281,2.0,6.0,36,0.00,,CLR,0.01,VWS V14.01,2013-06-16 21:10:00,
2013-06-16 16:15:00,83.6,55.3,29.88,NE,37,2.0,6.0,38,0.00,,CLR,0.01,VWS V14.01,2013-06-16 21:15:00,
2013-06-16 16:20:00,83.6,55.3,29.88,WNW,295,1.0,7.0,38,0.00,,CLR,0.01,VWS V14.01,2013-06-16 21:20:00,
2013-06-16 16:25:00,83.4,52.9,29.88,NW,308,2.0,7.0,35,0.00,,CLR,0.01,VWS V14.01,2013-06-16 21:25:00,
2013-06-16 16:30:00,83.5,52.2,29.87,WNW,283,0.0,7.0,34,0.00,,CLR,0.01,VWS V14.01,2013-06-16 21:30:00,
2013-06-16 16:35:00,83.6,52.3,29.87,NW,319,0.0,3.0,34,0.00,,CLR,0.01,VWS V14.01,2013-06-16 21:35:00,
2013-06-16 16:40:00,83.9,52.6,29.87,NW,309,0.0,5.0,34,0.00,,CLR,0.01,VWS V14.01,2013-06-16 21:40:00,
2013-06-16 16:45:00,84.2,54.4,29.87,NW,304,0.0,5.0,36,0.00,,CLR,0.01,VWS V14.01,2013-06-16 21:45:00,
2013-06-16 16:50:00,84.2,52.0,29.87,North,351,1.0,5.0,33,0.00,,CLR,0.01,VWS V14.01,2013-06-16 21:50:00,
2013-06-16 16:55:00,84.2,53.6,29.87,WNW,299,0.0,5.0,35,0.00,,CLR,0.01,VWS V14.01,2013-06-16 21:55:00,
2013-06-16 17:00:00,84.1,52.7,29.87,WNW,298,2.0,5.0,34,0.00,,CLR,0.01,VWS V14.01,2013-06-16 22:00:00,
2013-06-16 17:05:00,83.4,52.1,29.86,NW,310,1.0,3.0,34,0.00,,CLR,0.01,VWS V14.01,2013-06-16 22:05:00,
2013-06-16 17:10:00,82.8,50.0,29.86,WSW,246,0.0,4.0,32,0.00,,CLR,0.01,VWS V14.01,2013-06-16 22:10:00,
2013-06-16 17:15:00,82.6,53.7,29.86,West,280,0.0,4.0,37,0.00,,CLR,0.01,VWS V14.01,2013-06-16 22:15:00,
2013-06-16 17:20:00,82.2,52.6,29.86,WNW,298,1.0,5.0,36,0.00,,CLR,0.01,VWS V14.01,2013-06-16 22:20:00,
2013-06-16 17:25:00,81.7,55.7,29.86,NW,306,2.0,5.0,41,0.00,,CLR,0.01,VWS V14.01,2013-06-16 22:25:00,
2013-06-16 17:30:00,81.3,53.3,29.86,West,269,2.0,5.0,38,0.00,,CLR,0.01,VWS V14.01,2013-06-16 22:30:00,
2013-06-16 17:35:00,81.1,54.5,29.86,West,259,0.0,2.0,40,0.00,,CLR,0.01,VWS V14.01,2013-06-16 22:35:00,
2013-06-16 17:39:00,81.1,53.8,29.86,WNW,285,1.0,4.0,39,0.00,,CLR,0.01,VWS V14.01,2013-06-16 22:39:00,
2013-06-16 17:44:00,81.2,52.5,29.86,WNW,284,1.0,4.0,37,0.00,,CLR,0.01,VWS V14.01,2013-06-16 22:44:00,
2013-06-16 17:50:00,81.4,53.4,29.85,WNW,284,1.0,4.0,38,0.00,,CLR,0.01,VWS V14.01,2013-06-16 22:50:00,
2013-06-16 17:54:00,81.4,52.7,29.85,WSW,242,2.0,4.0,37,0.00,,CLR,0.01,VWS V14.01,2013-06-16 22:54:00,
2013-06-16 17:59:00,81.7,53.7,29.85,West,274,2.0,4.0,38,0.00,,CLR,0.01,VWS V14.01,2013-06-16 22:59:00,
2013-06-16 18:04:00,81.9,55.2,29.85,WNW,291,0.0,3.0,40,0.00,,CLR,0.01,VWS V14.01,2013-06-16 23:04:00,
2013-06-16 18:09:00,82.2,53.4,29.85,WSW,258,2.0,4.0,37,0.00,,CLR,0.01,VWS V14.01,2013-06-16 23:09:00,
2013-06-16 18:14:00,82.4,55.7,29.84,West,269,3.0,4.0,40,0.00,,CLR,0.01,VWS V14.01,2013-06-16 23:14:00,
2013-06-16 18:20:00,82.5,55.8,29.85,West,278,2.0,5.0,40,0.00,,CLR,0.01,VWS V14.01,2013-06-16 23:20:00,
2013-06-16 18:24:00,82.4,53.5,29.84,West,279,2.0,5.0,37,0.00,,CLR,0.01,VWS V14.01,2013-06-16 23:24:00,
2013-06-16 18:29:00,82.3,55.6,29.84,West,264,2.0,5.0,40,0.00,,CLR,0.01,VWS V14.01,2013-06-16 23:29:00,
2013-06-16 18:34:00,81.9,53.8,29.84,West,267,3.0,5.0,38,0.00,,CLR,0.01,VWS V14.01,2013-06-16 23:34:00,
2013-06-16 18:39:00,81.5,54.9,29.84,West,260,2.0,5.0,40,0.00,,CLR,0.01,VWS V14.01,2013-06-16 23:39:00,
2013-06-16 18:45:00,81.2,56.0,29.84,WNW,290,3.0,5.0,42,0.00,,CLR,0.01,VWS V14.01,2013-06-16 23:45:00,
2013-06-16 18:50:00,81.2,54.6,29.84,WSW,243,3.0,5.0,40,0.00,,CLR,0.01,VWS V14.01,2013-06-16 23:50:00,
2013-06-16 18:55:00,81.1,53.1,29.84,West,266,5.0,7.0,38,0.00,,CLR,0.01,VWS V14.01,2013-06-16 23:55:00,
2013-06-16 19:00:00,81.2,53.2,29.83,WNW,288,2.0,7.0,38,0.00,,CLR,0.01,VWS V14.01,2013-06-17 00:00:00,
2013-06-16 19:05:00,81.1,53.1,29.83,West,262,3.0,4.0,38,0.00,,CLR,0.01,VWS V14.01,2013-06-17 00:05:00,
2013-06-16 19:10:00,81.1,53.8,29.83,WNW,293,2.0,7.0,39,0.00,,CLR,0.01,VWS V14.01,2013-06-17 00:10:00,
2013-06-16 19:15:00,81.0,53.7,29.83,West,274,1.0,7.0,39,0.00,,CLR,0.01,VWS V14.01,2013-06-17 00:15:00,
2013-06-16 19:20:00,81.0,53.7,29.83,West,270,1.0,7.0,39,0.00,,CLR,0.01,VWS V14.01,2013-06-17 00:20:00,
2013-06-16 19:25:00,80.7,54.2,29.83,WNW,284,1.0,7.0,40,0.00,,CLR,0.01,VWS V14.01,2013-06-17 00:25:00,
2013-06-16 19:30:00,80.4,53.9,29.83,West,276,4.0,7.0,40,0.00,,CLR,0.01,VWS V14.01,2013-06-17 00:30:00,
2013-06-16 19:35:00,80.1,54.3,29.82,West,260,2.0,5.0,41,0.00,,CLR,0.01,VWS V14.01,2013-06-17 00:35:00,
2013-06-16 19:40:00,79.7,55.9,29.82,West,270,1.0,5.0,44,0.00,,CLR,0.01,VWS V14.01,2013-06-17 00:40:00,
2013-06-16 19:45:00,79.4,55.6,29.82,West,281,3.0,5.0,44,0.00,,CLR,0.01,VWS V14.01,2013-06-17 00:45:00,
2013-06-16 19:50:00,79.2,56.7,29.82,West,259,2.0,5.0,46,0.00,,CLR,0.01,VWS V14.01,2013-06-17 00:50:00,
2013-06-16 19:55:00,78.7,56.8,29.82,West,271,2.0,5.0,47,0.00,,CLR,0.01,VWS V14.01,2013-06-17 00:55:00,
2013-06-16 20:00:00,78.2,57.5,29.83,West,259,2.0,5.0,49,0.00,,CLR,0.01,VWS V14.01,2013-06-17 01:00:00,
2013-06-16 20:05:00,77.8,57.1,29.83,West,259,3.0,4.0,49,0.00,,CLR,0.01,VWS V14.01,2013-06-17 01:05:00,
2013-06-16 20:10:00,77.4,57.9,29.82,WSW,241,4.0,5.0,51,0.00,,CLR,0.01,VWS V14.01,2013-06-17 01:10:00,
2013-06-16 20:15:00,77.2,58.2,29.83,WSW,245,4.0,6.0,52,0.00,,CLR,0.01,VWS V14.01,2013-06-17 01:15:00,
2013-06-16 20:19:00,76.9,58.5,29.83,West,266,2.0,6.0,53,0.00,,CLR,0.01,VWS V14.01,2013-06-17 01:19:00,
2013-06-16 20:24:00,76.6,59.2,29.84,West,262,3.0,6.0,55,0.00,,CLR,0.01,VWS V14.01,2013-06-17 01:24:00,
2013-06-16 20:30:00,76.3,58.5,29.83,WSW,239,3.0,6.0,54,0.00,,CLR,0.01,VWS V14.01,2013-06-17 01:30:00,
2013-06-16 20:34:00,76.2,59.4,29.84,WSW,248,3.0,5.0,56,0.00,,CLR,0.01,VWS V14.01,2013-06-17 01:34:00,
2013-06-16 20:39:00,75.8,59.5,29.84,WSW,251,3.0,6.0,57,0.00,,CLR,0.01,VWS V14.01,2013-06-17 01:39:00,
2013-06-16 20:44:00,75.4,59.6,29.84,West,271,2.0,6.0,58,0.00,,CLR,0.01,VWS V14.01,2013-06-17 01:44:00,
2013-06-16 20:49:00,75.1,59.3,29.84,West,273,3.0,6.0,58,0.00,,CLR,0.01,VWS V14.01,2013-06-17 01:49:00,
2013-06-16 20:54:00,75.0,58.3,29.85,West,260,3.0,6.0,56,0.00,,CLR,0.01,VWS V14.01,2013-06-17 01:54:00,
2013-06-16 20:59:00,75.0,58.3,29.85,West,275,3.0,6.0,56,0.00,,CLR,0.01,VWS V14.01,2013-06-17 01:59:00,
2013-06-16 21:04:00,74.8,58.1,29.85,West,264,3.0,4.0,56,0.00,,CLR,0.01,VWS V14.01,2013-06-17 02:04:00,
2013-06-16 21:09:00,74.6,57.4,29.85,West,276,1.0,4.0,55,0.00,,CLR,0.01,VWS V14.01,2013-06-17 02:09:00,
2013-06-16 21:14:00,74.4,57.2,29.84,WSW,256,3.0,6.0,55,0.00,,CLR,0.01,VWS V14.01,2013-06-17 02:14:00,
2013-06-16 21:19:00,74.4,57.2,29.84,West,274,1.0,6.0,55,0.00,,CLR,0.01,VWS V14.01,2013-06-17 02:19:00,
2013-06-16 21:24:00,74.3,57.1,29.84,West,269,4.0,7.0,55,0.00,,CLR,0.01,VWS V14.01,2013-06-17 02:24:00,
2013-06-16 21:29:00,74.0,57.3,29.84,West,264,3.0,7.0,56,0.00,,CLR,0.01,VWS V14.01,2013-06-17 02:29:00,
2013-06-16 21:34:00,73.7,57.5,29.84,WSW,250,4.0,5.0,57,0.00,,CLR,0.01,VWS V14.01,2013-06-17 02:34:00,
2013-06-16 21:39:00,73.2,57.5,29.85,WSW,249,4.0,5.0,58,0.00,,CLR,0.01,VWS V14.01,2013-06-17 02:39:00,
2013-06-16 21:44:00,72.8,58.1,29.85,West,274,4.0,5.0,60,0.00,,CLR,0.01,VWS V14.01,2013-06-17 02:44:00,
2013-06-16 21:49:00,72.6,57.9,29.85,WSW,255,3.0,5.0,60,0.00,,CLR,0.01,VWS V14.01,2013-06-17 02:49:00,
2013-06-16 21:54:00,72.5,57.8,29.85,West,276,3.0,5.0,60,0.00,,CLR,0.01,VWS V14.01,2013-06-17 02:54:00,
2013-06-16 21:59:00,72.3,57.7,29.86,West,271,4.0,6.0,60,0.00,,CLR,0.01,VWS V14.01,2013-06-17 02:59:00,
2013-06-16 22:04:00,72.2,57.6,29.86,West,266,4.0,6.0,60,0.00,,CLR,0.01,VWS V14.01,2013-06-17 03:04:00,
2013-06-16 22:09:00,72.1,57.5,29.86,West,281,3.0,6.0,60,0.00,,CLR,0.01,VWS V14.01,2013-06-17 03:09:00,
2013-06-16 22:14:00,71.9,57.3,29.86,WNW,288,4.0,6.0,60,0.00,,CLR,0.01,VWS V14.01,2013-06-17 03:14:00,
2013-06-16 22:19:00,71.7,57.1,29.86,WSW,249,2.0,6.0,60,0.00,,CLR,0.01,VWS V14.01,2013-06-17 03:19:00,
2013-06-16 22:24:00,71.5,56.9,29.86,West,266,3.0,6.0,60,0.00,,CLR,0.01,VWS V14.01,2013-06-17 03:24:00,
2013-06-16 22:29:00,71.4,56.8,29.86,West,270,4.0,6.0,60,0.00,,CLR,0.01,VWS V14.01,2013-06-17 03:29:00,
2013-06-16 22:34:00,71.5,56.9,29.86,WSW,240,3.0,9.0,60,0.00,,CLR,0.01,VWS V14.01,2013-06-17 03:34:00,
2013-06-16 22:39:00,71.5,56.4,29.86,WNW,284,4.0,9.0,59,0.00,,CLR,0.01,VWS V14.01,2013-06-17 03:39:00,
2013-06-16 22:44:00,71.4,56.3,29.86,West,276,4.0,9.0,59,0.00,,CLR,0.01,VWS V14.01,2013-06-17 03:44:00,
2013-06-16 22:49:00,71.2,56.6,29.86,West,266,2.0,9.0,60,0.00,,CLR,0.01,VWS V14.01,2013-06-17 03:49:00,
2013-06-16 22:54:00,71.0,56.0,29.87,West,266,5.0,9.0,59,0.00,,CLR,0.01,VWS V14.01,2013-06-17 03:54:00,
2013-06-16 22:59:00,71.1,56.1,29.87,West,259,6.0,9.0,59,0.00,,CLR,0.01,VWS V14.01,2013-06-17 03:59:00,
2013-06-16 23:01:00,71.1,56.1,29.86,West,273,2.0,5.0,59,0.00,,CLR,0.01,VWS V14.01,2013-06-17 04:01:00,
2013-06-16 23:06:00,70.9,55.4,29.87,West,278,4.0,7.0,58,0.00,,CLR,0.01,VWS V14.01,2013-06-17 04:06:00,
2013-06-16 23:11:00,70.9,55.9,29.87,West,274,4.0,7.0,59,0.00,,CLR,0.01,VWS V14.01,2013-06-17 04:11:00,
2013-06-16 23:16:00,70.8,55.8,29.87,West,267,7.0,8.0,59,0.00,,CLR,0.01,VWS V14.01,2013-06-17 04:16:00,
2013-06-16 23:21:00,70.7,56.2,29.87,West,274,3.0,9.0,60,0.00,,CLR,0.01,VWS V14.01,2013-06-17 04:21:00,
2013-06-16 23:26:00,70.6,55.6,29.88,West,278,5.0,9.0,59,0.00,,CLR,0.01,VWS V14.01,2013-06-17 04:26:00,
2013-06-16 23:31:00,70.7,55.2,29.87,West,270,4.0,7.0,58,0.00,,CLR,0.01,VWS V14.01,2013-06-17 04:31:00,
2013-06-16 23:36:00,70.6,55.1,29.87,WNW,295,3.0,7.0,58,0.00,,CLR,0.01,VWS V14.01,2013-06-17 04:36:00,
2013-06-16 23:41:00,70.6,54.6,29.87,West,269,5.0,8.0,57,0.00,,CLR,0.01,VWS V14.01,2013-06-17 04:41:00,
2013-06-16 23:46:00,70.4,54.9,29.88,WNW,293,4.0,8.0,58,0.00,,CLR,0.01,VWS V14.01,2013-06-17 04:46:00,
2013-06-16 23:51:00,70.3,54.8,29.87,West,281,4.0,8.0,58,0.00,,CLR,0.01,VWS V14.01,2013-06-17 04:51:00,
2013-06-16 23:56:00,70.1,54.7,29.87,West,266,5.0,8.0,58,0.00,,CLR,0.01,VWS V14.01,2013-06-17 04:56:00,